createdAt,value
2023-03-28T00:00:11.067Z,1.20
2023-03-28T00:01:16.855Z,1.20
2023-03-28T00:02:18.213Z,1.20
2023-03-28T00:03:19.648Z,1.18
2023-03-28T00:04:21.008Z,1.19
2023-03-28T00:05:22.322Z,1.14
2023-03-28T00:06:23.788Z,1.14
2023-03-28T00:07:25.062Z,1.14
2023-03-28T00:08:26.600Z,1.10
2023-03-28T00:09:27.795Z,1.12
2023-03-28T00:10:28.977Z,1.08
2023-03-28T00:11:30.200Z,1.08
2023-03-28T00:12:31.400Z,1.05
2023-03-28T00:13:33.028Z,1.07
2023-03-28T00:14:34.216Z,1.06
2023-03-28T00:15:37.537Z,1.06
2023-03-28T00:16:38.965Z,1.06
2023-03-28T00:17:40.234Z,1.04
2023-03-28T00:18:41.882Z,1.05
2023-03-28T00:19:43.355Z,1.01
2023-03-28T00:20:44.633Z,1.03
2023-03-28T00:21:47.651Z,1.03
2023-03-28T00:22:48.950Z,1.02
2023-03-28T00:23:54.262Z,0.98
2023-03-28T00:24:56.058Z,1.01
2023-03-28T00:25:57.422Z,1.02
2023-03-28T00:26:58.883Z,1.06
2023-03-28T00:28:00.216Z,1.05
2023-03-28T00:29:02.248Z,1.05
2023-03-28T00:30:04.250Z,1.05
2023-03-28T00:31:06.292Z,1.06
2023-03-28T00:32:07.707Z,1.04
2023-03-28T00:33:08.966Z,1.08
2023-03-28T00:34:10.380Z,1.08
2023-03-28T00:35:11.624Z,1.05
2023-03-28T00:36:13.380Z,1.03
2023-03-28T00:37:14.762Z,1.05
2023-03-28T00:38:16.148Z,1.04
2023-03-28T00:39:17.359Z,1.01
2023-03-28T00:40:18.609Z,0.99
2023-03-28T00:41:20.521Z,0.98
2023-03-28T00:42:22.958Z,0.94
2023-03-28T00:43:37.381Z,0.92
2023-03-28T00:44:44.661Z,0.91
2023-03-28T00:45:48.838Z,0.91
2023-03-28T00:46:57.691Z,0.95
2023-03-28T00:48:05.330Z,0.94
2023-03-28T00:49:10.220Z,0.92
2023-03-28T00:50:14.475Z,0.93
2023-03-28T00:51:16.808Z,0.90
2023-03-28T00:52:19.496Z,0.90
2023-03-28T00:53:21.491Z,0.90
2023-03-28T00:54:25.073Z,0.88
2023-03-28T00:55:28.339Z,0.89
2023-03-28T00:56:31.842Z,0.87
2023-03-28T00:57:33.211Z,0.84
2023-03-28T00:58:38.276Z,0.83
2023-03-28T00:59:40.847Z,0.83
2023-03-28T01:00:42.143Z,0.80
2023-03-28T01:01:44.121Z,0.79
2023-03-28T01:02:47.483Z,0.77
2023-03-28T01:03:54.150Z,0.75
2023-03-28T01:04:58.333Z,0.77
2023-03-28T01:06:02.377Z,0.75
2023-03-28T01:07:12.879Z,0.71
2023-03-28T01:08:21.949Z,0.71
2023-03-28T01:09:23.461Z,0.68
2023-03-28T01:10:26.015Z,0.65
2023-03-28T01:11:27.525Z,0.65
2023-03-28T01:12:29.021Z,0.63
2023-03-28T01:13:36.926Z,0.61
2023-03-28T01:14:39.045Z,0.62
2023-03-28T01:15:41.995Z,0.61
2023-03-28T01:16:43.602Z,0.59
2023-03-28T01:17:45.184Z,0.60
2023-03-28T01:18:48.003Z,0.59
2023-03-28T01:19:53.244Z,0.58
2023-03-28T01:21:07.480Z,0.55
2023-03-28T01:22:11.851Z,0.52
2023-03-28T01:23:33.828Z,0.53
2023-03-28T01:24:56.460Z,0.51
2023-03-28T01:26:16.077Z,0.48
2023-03-28T01:27:27.947Z,0.47
2023-03-28T01:28:41.807Z,0.45
2023-03-28T01:29:55.261Z,0.45
2023-03-28T01:31:09.160Z,0.41
2023-03-28T01:32:45.633Z,0.44
2023-03-28T01:34:01.419Z,0.40
2023-03-28T01:35:22.824Z,0.38
2023-03-28T01:36:43.034Z,0.40
2023-03-28T01:37:53.955Z,0.42
2023-03-28T01:39:00.419Z,0.40
2023-03-28T01:40:10.688Z,0.39
2023-03-28T01:41:18.205Z,0.37
2023-03-28T01:42:21.950Z,0.38
2023-03-28T01:43:34.742Z,0.37
2023-03-28T01:44:42.243Z,0.37
2023-03-28T01:45:55.632Z,0.36
2023-03-28T01:47:05.427Z,0.36
2023-03-28T01:48:15.721Z,0.35
2023-03-28T01:49:19.993Z,0.33
2023-03-28T01:50:30.576Z,0.32
2023-03-28T01:51:35.787Z,0.32
2023-03-28T01:52:55.543Z,0.30
2023-03-28T01:54:00.246Z,0.34
2023-03-28T01:55:19.900Z,0.35
2023-03-28T01:56:24.961Z,0.35
2023-03-28T01:57:45.046Z,0.39
2023-03-28T01:58:52.281Z,0.35
2023-03-28T02:00:02.994Z,0.33
2023-03-28T02:01:17.177Z,0.31
2023-03-28T02:02:18.561Z,0.29
2023-03-28T02:03:28.947Z,0.29
2023-03-28T02:04:33.991Z,0.28
2023-03-28T02:05:36.237Z,0.30
2023-03-28T02:06:40.158Z,0.30
2023-03-28T02:07:48.532Z,0.30
2023-03-28T02:08:52.322Z,0.30
2023-03-28T02:10:03.826Z,0.28
2023-03-28T02:11:25.147Z,0.27
2023-03-28T02:12:49.186Z,0.28
2023-03-28T02:14:16.593Z,0.27
2023-03-28T02:15:29.569Z,0.26
2023-03-28T02:16:58.572Z,0.28
2023-03-28T02:18:18.008Z,0.29
2023-03-28T02:19:29.471Z,0.30
2023-03-28T02:20:38.332Z,0.34
2023-03-28T02:22:16.062Z,0.35
2023-03-28T02:23:30.739Z,0.37
2023-03-28T02:24:44.467Z,0.37
2023-03-28T02:25:47.498Z,0.37
2023-03-28T02:26:58.499Z,0.35
2023-03-28T02:28:11.513Z,0.36
2023-03-28T02:29:36.887Z,0.34
2023-03-28T02:30:50.840Z,0.34
2023-03-28T02:31:55.780Z,0.34
2023-03-28T02:32:59.616Z,0.34
2023-03-28T02:34:00.954Z,0.40
2023-03-28T02:35:03.735Z,0.39
2023-03-28T02:36:19.365Z,0.38
2023-03-28T02:37:40.778Z,0.38
2023-03-28T02:38:47.930Z,0.35
2023-03-28T02:40:00.372Z,0.33
2023-03-28T02:41:04.557Z,0.32
2023-03-28T02:42:10.107Z,0.31
2023-03-28T02:43:19.011Z,0.29
2023-03-28T02:44:39.087Z,0.26
2023-03-28T02:46:10.859Z,0.25
2023-03-28T02:47:18.096Z,0.25
2023-03-28T02:48:31.663Z,0.28
2023-03-28T02:49:50.382Z,0.24
2023-03-28T02:50:58.565Z,0.23
2023-03-28T02:52:11.880Z,0.23
2023-03-28T02:53:18.000Z,0.20
2023-03-28T02:54:24.100Z,0.19
2023-03-28T02:55:53.427Z,0.18
2023-03-28T02:57:22.788Z,0.21
2023-03-28T02:58:34.728Z,0.19
2023-03-28T02:59:44.055Z,0.21
2023-03-28T03:00:45.371Z,0.20
2023-03-28T03:01:46.679Z,0.21
2023-03-28T03:02:49.378Z,0.24
2023-03-28T03:03:51.507Z,0.25
2023-03-28T03:04:52.891Z,0.25
2023-03-28T03:05:54.316Z,0.25
2023-03-28T03:06:55.607Z,0.24
2023-03-28T03:07:56.831Z,0.26
2023-03-28T03:08:58.588Z,0.26
2023-03-28T03:09:59.812Z,0.26
2023-03-28T03:11:01.084Z,0.26
2023-03-28T03:12:02.403Z,0.27
2023-03-28T03:13:03.823Z,0.26
2023-03-28T03:14:05.224Z,0.30
2023-03-28T03:15:07.123Z,0.30
2023-03-28T03:16:28.929Z,0.28
2023-03-28T03:17:31.678Z,0.27
2023-03-28T03:18:33.624Z,0.29
2023-03-28T03:19:34.818Z,0.28
2023-03-28T03:20:36.016Z,0.26
2023-03-28T03:21:37.576Z,0.26
2023-03-28T03:22:39.180Z,0.23
2023-03-28T03:23:40.495Z,0.22
2023-03-28T03:24:41.708Z,0.24
2023-03-28T03:25:43.038Z,0.25
2023-03-28T03:26:53.731Z,0.24
2023-03-28T03:27:54.979Z,0.24
2023-03-28T03:28:56.267Z,0.23
2023-03-28T03:30:01.287Z,0.23
2023-03-28T03:31:19.312Z,0.21
2023-03-28T03:32:26.314Z,0.21
2023-03-28T03:33:37.534Z,0.22
2023-03-28T03:34:40.175Z,0.21
2023-03-28T03:35:41.441Z,0.20
2023-03-28T03:36:43.028Z,0.19
2023-03-28T03:37:44.397Z,0.18
2023-03-28T03:38:45.734Z,0.19
2023-03-28T03:39:51.649Z,0.20
2023-03-28T03:41:00.339Z,0.20
2023-03-28T03:42:01.977Z,0.22
2023-03-28T03:43:05.422Z,0.20
2023-03-28T03:44:09.419Z,0.24
2023-03-28T03:45:11.313Z,0.25
2023-03-28T03:46:16.984Z,0.24
2023-03-28T03:47:19.694Z,0.26
2023-03-28T03:48:23.895Z,0.26
2023-03-28T03:49:31.240Z,0.27
2023-03-28T03:50:34.705Z,0.27
2023-03-28T03:51:36.250Z,0.27
2023-03-28T03:52:37.583Z,0.28
2023-03-28T03:53:38.878Z,0.30
2023-03-28T03:54:45.052Z,0.30
2023-03-28T03:55:47.631Z,0.28
2023-03-28T03:56:48.955Z,0.26
2023-03-28T03:57:50.860Z,0.26
2023-03-28T03:58:52.139Z,0.27
2023-03-28T03:59:54.314Z,0.29
2023-03-28T04:00:55.777Z,0.27
2023-03-28T04:02:10.291Z,0.29
2023-03-28T04:03:23.904Z,0.28
2023-03-28T04:04:25.830Z,0.28
2023-03-28T04:05:45.454Z,0.26
2023-03-28T04:06:46.798Z,0.26
2023-03-28T04:07:48.080Z,0.24
2023-03-28T04:09:01.058Z,0.28
2023-03-28T04:10:21.238Z,0.27
2023-03-28T04:11:22.497Z,0.27
2023-03-28T04:12:23.679Z,0.23
2023-03-28T04:13:27.107Z,0.19
2023-03-28T04:14:33.502Z,0.16
2023-03-28T04:15:54.765Z,0.12
2023-03-28T04:17:14.560Z,0.09
2023-03-28T04:18:15.937Z,0.07
2023-03-28T04:19:19.064Z,0.07
2023-03-28T04:20:21.465Z,0.07
2023-03-28T04:21:34.630Z,0.05
2023-03-28T04:22:44.962Z,0.03
2023-03-28T04:23:50.336Z,0.03
2023-03-28T04:25:00.534Z,0.01
2023-03-28T04:26:12.192Z,-0.01
2023-03-28T04:27:29.884Z,-0.04
2023-03-28T04:28:31.720Z,-0.07
2023-03-28T04:29:39.804Z,-0.10
2023-03-28T04:31:16.133Z,-0.10
2023-03-28T04:32:35.935Z,-0.12
2023-03-28T04:33:41.332Z,-0.15
2023-03-28T04:34:43.431Z,-0.16
2023-03-28T04:35:49.336Z,-0.17
2023-03-28T04:36:53.264Z,-0.18
2023-03-28T04:37:54.515Z,-0.19
2023-03-28T04:38:56.724Z,-0.17
2023-03-28T04:40:21.159Z,-0.18
2023-03-28T04:41:26.706Z,-0.18
2023-03-28T04:42:40.126Z,-0.19
2023-03-28T04:43:56.986Z,-0.20
2023-03-28T04:44:58.208Z,-0.20
2023-03-28T04:46:00.277Z,-0.21
2023-03-28T04:47:01.790Z,-0.21
2023-03-28T04:48:03.339Z,-0.22
2023-03-28T04:49:04.862Z,-0.20
2023-03-28T04:50:07.618Z,-0.20
2023-03-28T04:51:11.219Z,-0.19
2023-03-28T04:52:14.555Z,-0.19
2023-03-28T04:53:18.431Z,-0.18
2023-03-28T04:54:38.152Z,-0.17
2023-03-28T04:55:42.233Z,-0.17
2023-03-28T04:56:53.845Z,-0.17
2023-03-28T04:58:01.919Z,-0.16
2023-03-28T04:59:03.260Z,-0.17
2023-03-28T05:00:04.904Z,-0.15
2023-03-28T05:01:24.566Z,-0.14
2023-03-28T05:02:44.520Z,-0.12
2023-03-28T05:03:48.704Z,-0.12
2023-03-28T05:04:49.987Z,-0.11
2023-03-28T05:05:52.235Z,-0.10
2023-03-28T05:06:53.481Z,-0.09
2023-03-28T05:07:54.810Z,-0.09
2023-03-28T05:08:56.324Z,-0.09
2023-03-28T05:10:01.318Z,-0.08
2023-03-28T05:11:09.116Z,-0.07
2023-03-28T05:12:11.364Z,-0.06
2023-03-28T05:13:35.184Z,-0.04
2023-03-28T05:14:46.493Z,-0.01
2023-03-28T05:15:50.476Z,0.07
2023-03-28T05:17:07.112Z,0.06
2023-03-28T05:18:27.200Z,0.05
2023-03-28T05:19:28.532Z,0.05
2023-03-28T05:20:43.339Z,0.03
2023-03-28T05:21:44.576Z,0.04
2023-03-28T05:22:45.810Z,0.04
2023-03-28T05:23:51.740Z,0.04
2023-03-28T05:24:56.477Z,0.08
2023-03-28T05:25:57.749Z,0.09
2023-03-28T05:26:59.916Z,0.10
2023-03-28T05:28:01.188Z,0.11
2023-03-28T05:29:02.591Z,0.11
2023-03-28T05:30:07.394Z,0.13
2023-03-28T05:31:09.142Z,0.14
2023-03-28T05:32:10.479Z,0.16
2023-03-28T05:33:11.765Z,0.17
2023-03-28T05:34:13.305Z,0.18
2023-03-28T05:35:20.063Z,0.22
2023-03-28T05:36:21.345Z,0.23
2023-03-28T05:37:22.624Z,0.25
2023-03-28T05:38:26.632Z,0.27
2023-03-28T05:39:31.620Z,0.28
2023-03-28T05:40:39.726Z,0.29
2023-03-28T05:41:41.054Z,0.32
2023-03-28T05:42:42.504Z,0.34
2023-03-28T05:43:47.567Z,0.35
2023-03-28T05:44:59.433Z,0.38
2023-03-28T05:46:26.998Z,0.41
2023-03-28T05:47:28.805Z,0.44
2023-03-28T05:48:31.682Z,0.46
2023-03-28T05:49:33.237Z,0.50
2023-03-28T05:50:34.512Z,0.54
2023-03-28T05:51:39.908Z,0.56
2023-03-28T05:52:41.109Z,0.57
2023-03-28T05:53:42.333Z,0.60
2023-03-28T05:54:51.585Z,0.64
2023-03-28T05:55:55.242Z,0.68
2023-03-28T05:56:56.557Z,0.69
2023-03-28T05:57:59.755Z,0.71
2023-03-28T05:59:10.572Z,0.75
2023-03-28T06:00:12.430Z,0.79
2023-03-28T06:01:19.318Z,0.88
2023-03-28T06:02:25.568Z,1.07
2023-03-28T06:03:31.896Z,1.47
2023-03-28T06:04:38.972Z,2.12
2023-03-28T06:05:44.850Z,2.93
2023-03-28T06:06:57.504Z,3.64
2023-03-28T06:08:00.772Z,3.92
2023-03-28T06:09:03.681Z,3.98
2023-03-28T06:10:15.130Z,3.85
2023-03-28T06:11:25.468Z,3.64
2023-03-28T06:12:41.740Z,3.43
2023-03-28T06:13:42.978Z,3.30
2023-03-28T06:14:45.419Z,3.12
2023-03-28T06:15:57.274Z,2.90
2023-03-28T06:17:10.104Z,2.77
2023-03-28T06:18:20.610Z,2.63
2023-03-28T06:19:24.043Z,2.54
2023-03-28T06:20:27.872Z,2.45
2023-03-28T06:21:30.426Z,2.39
2023-03-28T06:22:36.891Z,2.32
2023-03-28T06:23:41.646Z,2.26
2023-03-28T06:24:54.379Z,2.19
2023-03-28T06:26:01.260Z,2.16
2023-03-28T06:27:08.265Z,2.10
2023-03-28T06:28:13.417Z,2.08
2023-03-28T06:29:34.607Z,2.08
2023-03-28T06:30:37.825Z,2.07
2023-03-28T06:31:39.286Z,2.06
2023-03-28T06:32:40.577Z,2.03
2023-03-28T06:33:41.893Z,2.02
2023-03-28T06:34:44.704Z,2.01
2023-03-28T06:35:46.306Z,2.02
2023-03-28T06:36:47.586Z,2.03
2023-03-28T06:37:49.165Z,2.03
2023-03-28T06:38:57.748Z,2.02
2023-03-28T06:40:00.833Z,2.02
2023-03-28T06:41:02.339Z,2.04
2023-03-28T06:42:03.799Z,2.03
2023-03-28T06:43:13.573Z,2.02
2023-03-28T06:44:20.365Z,2.01
2023-03-28T06:45:44.623Z,2.01
2023-03-28T06:46:48.662Z,2.03
2023-03-28T06:47:50.757Z,2.06
2023-03-28T06:48:55.568Z,2.08
2023-03-28T06:50:15.418Z,2.12
2023-03-28T06:51:29.191Z,2.10
2023-03-28T06:52:30.462Z,2.11
2023-03-28T06:53:33.313Z,2.13
2023-03-28T06:54:34.651Z,2.18
2023-03-28T06:55:35.909Z,2.22
2023-03-28T06:56:37.175Z,2.25
2023-03-28T06:57:38.515Z,2.25
2023-03-28T06:58:55.475Z,2.25
2023-03-28T07:00:00.103Z,2.27
2023-03-28T07:01:21.352Z,2.29
2023-03-28T07:02:30.005Z,2.32
2023-03-28T07:03:36.587Z,2.34
2023-03-28T07:04:39.744Z,2.35
2023-03-28T07:05:42.037Z,2.34
2023-03-28T07:06:43.857Z,2.37
2023-03-28T07:07:45.066Z,2.38
2023-03-28T07:08:46.384Z,2.40
2023-03-28T07:09:49.624Z,2.41
2023-03-28T07:10:50.963Z,2.44
2023-03-28T07:11:52.972Z,2.47
2023-03-28T07:12:54.198Z,2.47
2023-03-28T07:13:55.461Z,2.49
2023-03-28T07:14:56.725Z,2.51
2023-03-28T07:16:01.789Z,2.54
2023-03-28T07:17:03.316Z,2.52
2023-03-28T07:18:05.643Z,2.59
2023-03-28T07:19:07.152Z,2.59
2023-03-28T07:20:11.068Z,2.60
2023-03-28T07:21:16.593Z,2.61
2023-03-28T07:22:17.855Z,2.62
2023-03-28T07:23:19.130Z,2.65
2023-03-28T07:24:20.461Z,2.68
2023-03-28T07:25:40.581Z,2.68
2023-03-28T07:26:41.855Z,2.70
2023-03-28T07:27:43.804Z,2.71
2023-03-28T07:28:45.049Z,2.72
2023-03-28T07:29:46.581Z,2.75
2023-03-28T07:30:47.935Z,2.76
2023-03-28T07:31:49.446Z,2.77
2023-03-28T07:32:59.234Z,2.75
2023-03-28T07:34:09.348Z,2.76
2023-03-28T07:35:10.631Z,2.79
2023-03-28T07:36:21.089Z,2.79
2023-03-28T07:37:27.090Z,2.83
2023-03-28T07:38:50.822Z,2.85
2023-03-28T07:39:53.463Z,2.86
2023-03-28T07:41:00.125Z,2.85
2023-03-28T07:42:01.766Z,2.87
2023-03-28T07:43:03.492Z,2.90
2023-03-28T07:44:04.808Z,2.94
2023-03-28T07:45:06.337Z,2.95
2023-03-28T07:46:09.017Z,2.98
2023-03-28T07:47:10.781Z,3.02
2023-03-28T07:48:12.016Z,3.02
2023-03-28T07:49:13.520Z,3.10
2023-03-28T07:50:14.891Z,3.11
2023-03-28T07:51:16.144Z,3.12
2023-03-28T07:52:17.482Z,3.19
2023-03-28T07:53:18.788Z,3.21
2023-03-28T07:54:20.069Z,3.22
2023-03-28T07:55:21.941Z,3.21
2023-03-28T07:56:24.775Z,3.22
2023-03-28T07:57:48.254Z,3.25
2023-03-28T07:59:00.173Z,3.25
2023-03-28T08:00:01.389Z,3.28
2023-03-28T08:01:03.948Z,3.30
2023-03-28T08:02:23.793Z,3.30
2023-03-28T08:03:25.272Z,3.34
2023-03-28T08:04:26.649Z,3.36
2023-03-28T08:05:34.067Z,3.38
2023-03-28T08:06:36.035Z,3.40
2023-03-28T08:07:37.263Z,3.41
2023-03-28T08:08:38.575Z,3.46
2023-03-28T08:10:04.776Z,3.48
2023-03-28T08:11:06.383Z,3.48
2023-03-28T08:12:07.997Z,3.51
2023-03-28T08:13:09.314Z,3.55
2023-03-28T08:14:14.732Z,3.54
2023-03-28T08:15:16.030Z,3.55
2023-03-28T08:16:17.347Z,3.55
2023-03-28T08:17:19.137Z,3.56
2023-03-28T08:18:20.430Z,3.56
2023-03-28T08:19:22.538Z,3.55
2023-03-28T08:20:50.660Z,3.58
2023-03-28T08:21:53.742Z,3.58
2023-03-28T08:22:55.064Z,3.66
2023-03-28T08:24:35.270Z,3.74
2023-03-28T08:25:44.381Z,3.71
2023-03-28T08:26:48.808Z,3.74
2023-03-28T08:27:50.436Z,3.75
2023-03-28T08:28:51.833Z,3.77
2023-03-28T08:29:53.291Z,3.81
2023-03-28T08:30:54.591Z,3.84
2023-03-28T08:31:55.896Z,3.88
2023-03-28T08:32:57.354Z,3.94
2023-03-28T08:33:58.612Z,3.96
2023-03-28T08:35:06.580Z,3.95
2023-03-28T08:36:08.571Z,3.97
2023-03-28T08:37:09.882Z,3.96
2023-03-28T08:38:11.519Z,3.98
2023-03-28T08:39:12.820Z,4.03
2023-03-28T08:40:17.357Z,4.01
2023-03-28T08:41:19.500Z,4.01
2023-03-28T08:42:31.156Z,4.02
2023-03-28T08:43:43.280Z,4.01
2023-03-28T08:45:03.094Z,4.03
2023-03-28T08:46:04.447Z,4.06
2023-03-28T08:47:09.321Z,4.08
2023-03-28T08:48:10.794Z,4.12
2023-03-28T08:49:15.099Z,4.11
2023-03-28T08:50:24.564Z,4.16
2023-03-28T08:51:29.075Z,4.22
2023-03-28T08:52:31.456Z,4.28
2023-03-28T08:53:35.221Z,4.28
2023-03-28T08:55:09.496Z,4.26
2023-03-28T08:56:13.707Z,4.21
2023-03-28T08:57:19.507Z,4.16
2023-03-28T08:58:21.688Z,4.13
2023-03-28T08:59:39.690Z,4.12
2023-03-28T09:00:40.968Z,4.15
2023-03-28T09:01:43.120Z,4.14
2023-03-28T09:02:44.467Z,4.18
2023-03-28T09:03:47.468Z,4.23
2023-03-28T09:04:51.309Z,4.32
2023-03-28T09:06:07.561Z,4.35
2023-03-28T09:07:29.118Z,4.38
2023-03-28T09:08:36.173Z,4.41
2023-03-28T09:09:43.469Z,4.45
2023-03-28T09:11:20.023Z,4.40
2023-03-28T09:12:27.528Z,4.41
2023-03-28T09:13:38.327Z,4.41
2023-03-28T09:14:45.408Z,4.41
2023-03-28T09:15:52.689Z,4.36
2023-03-28T09:17:00.010Z,4.35
2023-03-28T09:18:01.261Z,4.35
2023-03-28T09:20:31.449Z,4.42
2023-03-28T09:21:50.376Z,4.41
2023-03-28T09:23:17.855Z,4.44
2023-03-28T09:24:59.658Z,4.49
2023-03-28T09:26:09.478Z,4.53
2023-03-28T09:27:21.837Z,4.54
2023-03-28T09:28:40.153Z,4.56
2023-03-28T09:29:42.860Z,4.57
2023-03-28T09:30:46.777Z,4.57
2023-03-28T09:31:49.644Z,4.60
2023-03-28T09:32:54.257Z,4.61
2023-03-28T09:33:56.887Z,4.64
2023-03-28T09:35:15.269Z,4.69
2023-03-28T09:36:21.041Z,4.77
2023-03-28T09:37:28.844Z,4.84
2023-03-28T09:38:39.536Z,4.94
2023-03-28T09:39:51.731Z,5.05
2023-03-28T09:40:57.833Z,5.11
2023-03-28T09:42:36.902Z,5.19
2023-03-28T09:44:02.054Z,5.27
2023-03-28T09:45:20.391Z,5.29
2023-03-28T09:46:30.048Z,5.33
2023-03-28T09:47:45.354Z,5.40
2023-03-28T09:48:46.966Z,5.41
2023-03-28T09:49:59.241Z,5.40
2023-03-28T09:51:13.217Z,5.44
2023-03-28T09:52:15.900Z,5.44
2023-03-28T09:53:20.750Z,5.46
2023-03-28T09:54:27.496Z,5.42
2023-03-28T09:55:30.281Z,5.40
2023-03-28T09:56:34.783Z,5.38
2023-03-28T09:58:05.448Z,5.34
2023-03-28T09:59:12.574Z,5.31
2023-03-28T10:00:21.078Z,5.27
2023-03-28T10:01:36.167Z,5.34
2023-03-28T10:02:56.264Z,5.26
2023-03-28T10:03:58.027Z,5.22
2023-03-28T10:05:33.573Z,5.21
2023-03-28T10:06:45.264Z,5.20
2023-03-28T10:07:46.568Z,5.22
2023-03-28T10:09:19.962Z,5.24
2023-03-28T10:10:34.684Z,5.27
2023-03-28T10:11:44.144Z,5.35
2023-03-28T10:12:46.687Z,5.34
2023-03-28T10:13:51.710Z,5.32
2023-03-28T10:14:53.065Z,5.38
2023-03-28T10:16:32.669Z,5.37
2023-03-28T10:17:52.058Z,5.38
2023-03-28T10:18:59.370Z,5.47
2023-03-28T10:20:18.224Z,5.57
2023-03-28T10:21:24.233Z,5.67
2023-03-28T10:22:37.588Z,5.78
2023-03-28T10:23:39.956Z,5.80
2023-03-28T10:24:41.723Z,5.78
2023-03-28T10:25:44.658Z,5.77
2023-03-28T10:26:45.923Z,5.77
2023-03-28T10:27:47.832Z,5.77
2023-03-28T10:28:50.938Z,5.83
2023-03-28T10:29:53.368Z,5.84
2023-03-28T10:30:56.216Z,5.93
2023-03-28T10:31:59.159Z,5.97
2023-03-28T10:33:06.556Z,6.06
2023-03-28T10:34:25.826Z,6.15
2023-03-28T10:35:45.564Z,6.20
2023-03-28T10:36:54.025Z,6.25
2023-03-28T10:38:04.613Z,6.32
2023-03-28T10:39:20.948Z,6.33
2023-03-28T10:40:40.953Z,6.42
2023-03-28T10:42:05.097Z,6.42
2023-03-28T10:43:31.306Z,6.41
2023-03-28T10:44:57.842Z,6.41
2023-03-28T10:46:01.143Z,6.41
2023-03-28T10:47:30.536Z,6.47
2023-03-28T10:48:38.712Z,6.54
2023-03-28T10:49:48.462Z,6.66
2023-03-28T10:50:56.430Z,6.73
2023-03-28T10:51:57.876Z,6.79
2023-03-28T10:53:20.302Z,6.81
2023-03-28T10:54:24.245Z,6.76
2023-03-28T10:55:29.970Z,6.73
2023-03-28T10:56:51.611Z,6.76
2023-03-28T10:58:10.284Z,6.85
2023-03-28T10:59:39.257Z,6.97
2023-03-28T11:00:46.369Z,7.08
2023-03-28T11:02:06.254Z,7.16
2023-03-28T11:03:15.475Z,7.27
2023-03-28T11:04:38.684Z,7.35
2023-03-28T11:06:10.992Z,7.39
2023-03-28T11:07:25.297Z,7.43
2023-03-28T11:09:05.902Z,7.50
2023-03-28T11:10:43.275Z,7.63
2023-03-28T11:11:58.737Z,7.69
2023-03-28T11:13:07.308Z,7.73
2023-03-28T11:14:16.618Z,7.81
2023-03-28T11:15:24.701Z,7.89
2023-03-28T11:16:31.911Z,7.82
2023-03-28T11:18:10.591Z,7.93
2023-03-28T11:19:38.257Z,7.99
2023-03-28T11:20:46.843Z,8.01
2023-03-28T11:22:09.694Z,8.00
2023-03-28T11:23:16.606Z,8.01
2023-03-28T11:24:28.404Z,8.03
2023-03-28T11:25:59.695Z,8.09
2023-03-28T11:27:24.105Z,8.18
2023-03-28T11:29:12.038Z,8.11
2023-03-28T11:30:16.050Z,8.10
2023-03-28T11:31:29.164Z,8.16
2023-03-28T11:32:44.420Z,8.13
2023-03-28T11:34:01.463Z,8.09
2023-03-28T11:35:17.329Z,8.10
2023-03-28T11:36:23.531Z,8.11
2023-03-28T11:37:31.408Z,8.11
2023-03-28T11:38:35.997Z,8.12
2023-03-28T11:40:00.356Z,8.11
2023-03-28T11:41:14.842Z,8.13
2023-03-28T11:42:40.613Z,8.13
2023-03-28T11:43:45.029Z,8.10
2023-03-28T11:44:51.658Z,8.12
2023-03-28T11:45:56.389Z,8.07
2023-03-28T11:47:04.088Z,8.00
2023-03-28T11:48:10.672Z,7.97
2023-03-28T11:49:17.800Z,7.92
2023-03-28T11:50:33.331Z,8.01
2023-03-28T11:51:40.179Z,8.05
2023-03-28T11:52:51.492Z,8.09
2023-03-28T11:54:09.384Z,8.09
2023-03-28T11:55:18.540Z,8.07
2023-03-28T11:56:26.158Z,8.06
2023-03-28T11:57:46.463Z,7.97
2023-03-28T11:58:51.034Z,7.96
2023-03-28T12:00:01.787Z,7.93
2023-03-28T12:01:14.410Z,7.94
2023-03-28T12:02:15.863Z,7.93
2023-03-28T12:03:19.899Z,7.91
2023-03-28T12:04:52.795Z,7.87
2023-03-28T12:06:02.716Z,7.88
2023-03-28T12:07:05.626Z,7.93
2023-03-28T12:08:31.161Z,8.00
2023-03-28T12:09:41.646Z,8.00
2023-03-28T12:10:45.844Z,8.05
2023-03-28T12:12:12.604Z,7.96
2023-03-28T12:13:16.687Z,7.95
2023-03-28T12:14:36.687Z,8.02
2023-03-28T12:15:47.674Z,8.06
2023-03-28T12:16:52.427Z,8.17
2023-03-28T12:17:59.368Z,8.17
2023-03-28T12:19:02.690Z,8.25
2023-03-28T12:20:39.288Z,8.27
2023-03-28T12:21:50.607Z,8.33
2023-03-28T12:23:00.727Z,8.38
2023-03-28T12:24:42.512Z,8.46
2023-03-28T12:25:55.240Z,8.43
2023-03-28T12:27:02.106Z,8.45
2023-03-28T12:28:08.802Z,8.51
2023-03-28T12:29:30.522Z,8.57
2023-03-28T12:30:32.100Z,8.53
2023-03-28T12:31:39.877Z,8.52
2023-03-28T12:33:06.673Z,8.50
2023-03-28T12:34:33.162Z,8.49
2023-03-28T12:35:57.055Z,8.59
2023-03-28T12:37:04.413Z,8.63
2023-03-28T12:38:06.558Z,8.71
2023-03-28T12:39:28.076Z,8.76
2023-03-28T12:40:38.253Z,8.84
2023-03-28T12:41:39.948Z,8.86
2023-03-28T12:42:44.512Z,8.91
2023-03-28T12:43:48.415Z,8.91
2023-03-28T12:44:59.259Z,8.92
2023-03-28T12:46:02.469Z,8.99
2023-03-28T12:47:08.823Z,9.03
2023-03-28T12:48:28.140Z,9.05
2023-03-28T12:49:34.556Z,9.12
2023-03-28T12:50:45.897Z,9.17
2023-03-28T12:51:50.238Z,9.24
2023-03-28T12:52:52.851Z,9.17
2023-03-28T12:54:08.674Z,9.14
2023-03-28T12:55:25.805Z,8.99
2023-03-28T12:56:31.177Z,8.89
2023-03-28T12:57:38.474Z,8.95
2023-03-28T12:58:40.070Z,8.95
2023-03-28T13:00:05.618Z,8.91
2023-03-28T13:01:34.385Z,8.91
2023-03-28T13:03:01.193Z,8.89
2023-03-28T13:04:21.500Z,8.98
2023-03-28T13:05:54.254Z,8.98
2023-03-28T13:07:10.244Z,9.05
2023-03-28T13:08:24.402Z,9.06
2023-03-28T13:09:35.591Z,9.07
2023-03-28T13:11:06.291Z,9.06
2023-03-28T13:12:19.587Z,9.16
2023-03-28T13:13:20.785Z,9.18
2023-03-28T13:14:30.835Z,9.15
2023-03-28T13:15:32.978Z,9.16
2023-03-28T13:16:52.261Z,9.23
2023-03-28T13:18:12.353Z,9.26
2023-03-28T13:19:17.906Z,9.35
2023-03-28T13:20:19.920Z,9.34
2023-03-28T13:21:39.770Z,9.24
2023-03-28T13:22:52.094Z,9.05
2023-03-28T13:23:53.367Z,9.15
2023-03-28T13:24:55.191Z,9.23
2023-03-28T13:25:57.526Z,9.31
2023-03-28T13:27:06.471Z,9.34
2023-03-28T13:28:10.705Z,9.39
2023-03-28T13:29:11.977Z,9.44
2023-03-28T13:30:21.199Z,9.51
2023-03-28T13:31:25.240Z,9.57
2023-03-28T13:32:32.852Z,9.64
2023-03-28T13:33:35.582Z,9.70
2023-03-28T13:34:36.813Z,9.77
2023-03-28T13:35:48.893Z,9.84
2023-03-28T13:36:53.282Z,9.80
2023-03-28T13:37:54.530Z,9.79
2023-03-28T13:39:00.172Z,9.86
2023-03-28T13:40:01.401Z,9.90
2023-03-28T13:41:04.191Z,9.93
2023-03-28T13:42:25.016Z,10.03
2023-03-28T13:43:39.025Z,10.07
2023-03-28T13:44:42.756Z,10.20
2023-03-28T13:45:44.046Z,10.21
2023-03-28T13:46:47.362Z,10.22
2023-03-28T13:47:53.026Z,10.22
2023-03-28T13:49:27.404Z,10.26
2023-03-28T13:50:30.600Z,10.29
2023-03-28T13:51:47.164Z,10.31
2023-03-28T13:52:49.973Z,10.29
2023-03-28T13:53:51.344Z,10.25
2023-03-28T13:54:59.839Z,10.16
2023-03-28T13:56:19.530Z,10.24
2023-03-28T13:57:22.519Z,10.30
2023-03-28T13:58:23.839Z,10.36
2023-03-28T13:59:26.599Z,10.44
2023-03-28T14:00:27.978Z,10.52
2023-03-28T14:01:33.752Z,10.59
2023-03-28T14:02:38.134Z,10.62
2023-03-28T14:03:42.717Z,10.72
2023-03-28T14:04:55.942Z,10.70
2023-03-28T14:05:57.248Z,10.64
2023-03-28T14:06:58.622Z,10.71
2023-03-28T14:08:20.242Z,10.73
2023-03-28T14:09:29.227Z,10.61
2023-03-28T14:10:30.575Z,10.59
2023-03-28T14:11:35.584Z,10.59
2023-03-28T14:12:37.580Z,10.42
2023-03-28T14:13:38.893Z,10.29
2023-03-28T14:14:51.276Z,10.33
2023-03-28T14:15:53.139Z,10.21
2023-03-28T14:16:54.500Z,10.23
2023-03-28T14:17:57.726Z,10.36
2023-03-28T14:19:01.159Z,10.46
2023-03-28T14:20:04.105Z,10.63
2023-03-28T14:21:05.399Z,10.76
2023-03-28T14:22:07.630Z,10.80
2023-03-28T14:23:25.835Z,10.91
2023-03-28T14:24:27.383Z,10.93
2023-03-28T14:25:28.861Z,10.91
2023-03-28T14:26:33.623Z,10.90
2023-03-28T14:27:39.037Z,10.95
2023-03-28T14:28:40.873Z,11.01
2023-03-28T14:29:56.040Z,11.05
2023-03-28T14:30:58.037Z,11.09
2023-03-28T14:31:59.548Z,11.09
2023-03-28T14:33:02.638Z,11.15
2023-03-28T14:34:16.146Z,11.21
2023-03-28T14:35:19.334Z,11.23
2023-03-28T14:36:20.618Z,11.24
2023-03-28T14:37:22.261Z,11.25
2023-03-28T14:38:28.716Z,11.40
2023-03-28T14:39:31.429Z,11.38
2023-03-28T14:40:34.481Z,11.43
2023-03-28T14:41:36.420Z,11.47
2023-03-28T14:42:37.686Z,11.50
2023-03-28T14:43:39.430Z,11.49
2023-03-28T14:44:42.301Z,11.49
2023-03-28T14:45:44.892Z,11.50
2023-03-28T14:46:46.297Z,11.46
2023-03-28T14:47:49.292Z,11.45
2023-03-28T14:48:50.683Z,11.35
2023-03-28T14:49:52.738Z,11.32
2023-03-28T14:50:54.874Z,11.32
2023-03-28T14:51:59.950Z,11.36
2023-03-28T14:53:04.116Z,11.32
2023-03-28T14:54:05.435Z,11.27
2023-03-28T14:55:13.102Z,11.22
2023-03-28T14:56:17.825Z,11.21
2023-03-28T14:57:19.616Z,11.21
2023-03-28T14:58:21.870Z,11.14
2023-03-28T14:59:25.885Z,11.07
2023-03-28T15:00:44.765Z,11.04
2023-03-28T15:01:47.737Z,11.02
2023-03-28T15:02:50.672Z,10.91